createdAt,value
2023-01-12T00:02:07.434Z,19.25
2023-01-12T00:04:36.009Z,15.05
2023-01-12T00:07:04.057Z,13.70
2023-01-12T00:09:31.974Z,19.98
2023-01-12T00:12:01.215Z,14.30
2023-01-12T00:14:29.364Z,15.20
2023-01-12T00:16:57.648Z,12.82
2023-01-12T00:19:25.547Z,10.80
2023-01-12T00:21:59.493Z,12.90
2023-01-12T00:24:29.145Z,15.13
2023-01-12T00:26:58.508Z,11.93
2023-01-12T00:29:28.967Z,16.75
2023-01-12T00:31:58.860Z,13.60
2023-01-12T00:34:29.402Z,12.65
2023-01-12T00:36:58.395Z,10.80
2023-01-12T00:39:26.230Z,13.23
2023-01-12T00:42:11.719Z,14.50
2023-01-12T00:44:58.429Z,11.13
2023-01-12T00:47:26.588Z,13.75
2023-01-12T00:49:54.481Z,10.25
2023-01-12T00:52:30.910Z,11.77
2023-01-12T00:55:00.145Z,10.48
2023-01-12T00:57:28.516Z,11.00
2023-01-12T01:00:00.022Z,16.52
2023-01-12T01:02:28.596Z,9.82
2023-01-12T01:04:57.153Z,10.63
2023-01-12T01:07:25.101Z,13.35
2023-01-12T01:09:53.101Z,8.30
2023-01-12T01:12:21.009Z,11.75
2023-01-12T01:14:49.587Z,11.25
2023-01-12T01:17:18.858Z,6.85
2023-01-12T01:19:46.725Z,15.00
2023-01-12T01:22:14.690Z,9.45
2023-01-12T01:24:42.931Z,11.38
2023-01-12T01:27:10.908Z,11.50
2023-01-12T01:29:38.793Z,10.73
2023-01-12T01:32:06.983Z,11.30
2023-01-12T01:34:37.179Z,15.30
2023-01-12T01:37:05.138Z,8.07
2023-01-12T01:39:33.030Z,17.75
2023-01-12T01:42:01.452Z,8.82
2023-01-12T01:44:49.852Z,12.20
2023-01-12T01:47:26.180Z,10.80
2023-01-12T01:49:58.664Z,17.55
2023-01-12T01:52:30.939Z,13.53
2023-01-12T01:55:02.270Z,9.75
2023-01-12T01:57:36.096Z,13.57
2023-01-12T02:00:07.100Z,11.10
2023-01-12T02:02:36.688Z,9.65
2023-01-12T02:05:06.801Z,8.18
2023-01-12T02:07:35.060Z,10.07
2023-01-12T02:10:03.686Z,17.83
2023-01-12T02:12:48.952Z,6.10
2023-01-12T02:15:34.469Z,10.13
2023-01-12T02:18:14.854Z,9.02
2023-01-12T02:20:51.853Z,14.00
2023-01-12T02:24:01.407Z,7.43
2023-01-12T02:27:13.993Z,12.02
2023-01-12T02:30:22.824Z,9.25
2023-01-12T02:33:03.531Z,9.60
2023-01-12T02:35:41.501Z,7.03
2023-01-12T02:38:18.441Z,13.65
2023-01-12T02:40:53.719Z,8.27
2023-01-12T02:43:27.049Z,10.35
2023-01-12T02:48:32.311Z,12.13
2023-01-12T02:51:06.918Z,7.85
2023-01-12T02:53:43.118Z,11.18
2023-01-12T02:56:12.836Z,8.35
2023-01-12T02:58:46.787Z,7.90
2023-01-12T03:01:17.937Z,8.20
2023-01-12T03:03:48.970Z,10.23
2023-01-12T03:06:18.147Z,9.93
2023-01-12T03:08:48.901Z,9.45
2023-01-12T03:11:19.433Z,7.10
2023-01-12T03:13:50.779Z,11.65
2023-01-12T03:16:22.052Z,7.72
2023-01-12T03:18:56.194Z,13.40
2023-01-12T03:21:29.609Z,7.30
2023-01-12T03:24:03.260Z,8.40
2023-01-12T03:26:33.864Z,6.20
2023-01-12T03:29:08.972Z,13.35
2023-01-12T03:31:38.270Z,8.93
2023-01-12T03:34:07.711Z,5.93
2023-01-12T03:36:46.523Z,12.75
2023-01-12T03:39:21.271Z,12.45
2023-01-12T03:41:57.601Z,10.52
2023-01-12T03:44:38.806Z,8.50
2023-01-12T03:47:13.829Z,11.57
2023-01-12T03:49:47.945Z,10.68
2023-01-12T03:52:18.313Z,12.98
2023-01-12T03:54:48.333Z,7.85
2023-01-12T03:57:16.932Z,6.07
2023-01-12T03:59:45.168Z,10.07
2023-01-12T04:02:14.426Z,15.18
2023-01-12T04:04:43.717Z,10.00
2023-01-12T04:07:11.662Z,9.30
2023-01-12T04:09:39.580Z,11.80
2023-01-12T04:12:13.607Z,8.90
2023-01-12T04:14:43.091Z,7.57
2023-01-12T04:17:13.298Z,6.68
2023-01-12T04:19:42.894Z,8.75
2023-01-12T04:22:32.961Z,9.35
2023-01-12T04:25:00.866Z,8.95
2023-01-12T04:27:28.946Z,11.63
2023-01-12T04:29:57.487Z,10.95
2023-01-12T04:32:25.350Z,6.40
2023-01-12T04:34:54.584Z,9.70
2023-01-12T04:37:22.612Z,9.75
2023-01-12T04:39:50.472Z,10.82
2023-01-12T04:42:36.172Z,18.85
2023-01-12T04:45:04.167Z,8.15
2023-01-12T04:47:32.033Z,6.57
2023-01-12T04:50:01.270Z,12.85
2023-01-12T04:52:29.168Z,9.05
2023-01-12T04:54:57.125Z,10.02
2023-01-12T04:57:25.236Z,9.20
2023-01-12T04:59:53.198Z,12.95
2023-01-12T05:02:21.131Z,9.48
2023-01-12T05:04:49.359Z,5.30
2023-01-12T05:07:18.850Z,8.35
2023-01-12T05:10:04.238Z,7.07
2023-01-12T05:12:32.158Z,8.85
2023-01-12T05:15:00.065Z,4.03
2023-01-12T05:17:28.546Z,6.85
2023-01-12T05:19:56.433Z,6.15
2023-01-12T05:22:25.816Z,10.20
2023-01-12T05:24:53.785Z,9.40
2023-01-12T05:27:21.635Z,9.43
2023-01-12T05:29:49.560Z,11.93
2023-01-12T05:32:17.437Z,7.03
2023-01-12T05:34:45.487Z,5.30
2023-01-12T05:37:13.396Z,10.00
2023-01-12T05:39:42.696Z,5.82
2023-01-12T05:42:27.825Z,6.70
2023-01-12T05:44:55.714Z,4.78
2023-01-12T05:47:23.642Z,10.00
2023-01-12T05:49:51.583Z,7.15
2023-01-12T05:52:19.468Z,8.13
2023-01-12T05:54:48.765Z,8.57
2023-01-12T05:57:16.662Z,3.10
2023-01-12T05:59:44.588Z,9.73
2023-01-12T06:02:17.097Z,8.50
2023-01-12T06:04:46.345Z,10.47
2023-01-12T06:07:14.363Z,8.52
2023-01-12T06:09:42.316Z,7.43
2023-01-12T06:12:30.276Z,7.30
2023-01-12T06:14:58.278Z,10.80
2023-01-12T06:17:26.339Z,10.15
2023-01-12T06:19:54.450Z,10.73
2023-01-12T06:22:22.333Z,7.07
2023-01-12T06:24:50.228Z,9.10
2023-01-12T06:27:19.480Z,7.45
2023-01-12T06:29:47.613Z,6.78
2023-01-12T06:32:15.508Z,8.77
2023-01-12T06:34:43.485Z,16.42
2023-01-12T06:37:13.092Z,11.77
2023-01-12T06:39:41.035Z,10.10
2023-01-12T06:42:26.337Z,7.03
2023-01-12T06:44:56.295Z,7.55
2023-01-12T06:47:24.304Z,13.07
2023-01-12T06:49:52.885Z,8.82
2023-01-12T06:52:22.216Z,9.75
2023-01-12T06:54:50.101Z,9.88
2023-01-12T06:57:18.503Z,6.85
2023-01-12T06:59:46.947Z,11.25
2023-01-12T07:02:17.636Z,9.13
2023-01-12T07:04:45.623Z,9.93
2023-01-12T07:07:13.691Z,14.10
2023-01-12T07:09:41.607Z,9.57
2023-01-12T07:12:09.505Z,6.63
2023-01-12T07:14:37.384Z,6.65
2023-01-12T07:17:05.314Z,9.88
2023-01-12T07:19:34.552Z,10.20
2023-01-12T07:22:02.438Z,17.52
2023-01-12T07:24:31.595Z,11.88
2023-01-12T07:26:59.506Z,8.88
2023-01-12T07:29:27.336Z,11.50
2023-01-12T07:31:55.289Z,6.30
2023-01-12T07:34:23.486Z,12.90
2023-01-12T07:36:52.833Z,9.52
2023-01-12T07:39:20.909Z,9.70
2023-01-12T07:42:06.447Z,12.07
2023-01-12T07:44:34.381Z,6.45
2023-01-12T07:47:02.399Z,9.15
2023-01-12T07:49:30.326Z,8.35
2023-01-12T07:51:59.643Z,10.80
2023-01-12T07:54:27.630Z,8.23
2023-01-12T07:56:55.618Z,8.13
2023-01-12T07:59:23.456Z,7.05
2023-01-12T08:01:53.710Z,6.90
2023-01-12T08:04:22.333Z,6.90
2023-01-12T08:06:50.185Z,6.68
2023-01-12T08:09:19.408Z,5.47
2023-01-12T08:11:47.309Z,8.23
2023-01-12T08:14:25.276Z,8.20
2023-01-12T08:16:54.444Z,6.68
2023-01-12T08:19:25.790Z,4.18
2023-01-12T08:22:01.140Z,4.60
2023-01-12T08:24:34.792Z,5.20
2023-01-12T08:27:06.621Z,8.63
2023-01-12T08:29:41.124Z,11.65
2023-01-12T08:32:10.600Z,7.40
2023-01-12T08:34:40.742Z,13.48
2023-01-12T08:37:12.088Z,6.57
2023-01-12T08:39:41.644Z,6.47
2023-01-12T08:42:10.352Z,7.53
2023-01-12T08:44:38.743Z,8.02
2023-01-12T08:47:15.600Z,7.32
2023-01-12T08:49:43.870Z,5.88
2023-01-12T08:52:11.788Z,13.02
2023-01-12T08:54:41.281Z,6.68
2023-01-12T08:57:09.185Z,6.78
2023-01-12T08:59:37.509Z,6.47
2023-01-12T09:02:05.996Z,6.15
2023-01-12T09:04:34.005Z,6.97
2023-01-12T09:07:01.973Z,6.10
2023-01-12T09:09:29.968Z,8.43
2023-01-12T09:11:59.192Z,7.15
2023-01-12T09:14:27.154Z,6.53
2023-01-12T09:16:56.910Z,5.35
2023-01-12T09:19:24.920Z,6.47
2023-01-12T09:21:52.854Z,7.80
2023-01-12T09:24:20.834Z,5.03
2023-01-12T09:26:48.708Z,5.57
2023-01-12T09:29:18.001Z,5.93
2023-01-12T09:31:46.701Z,9.38
2023-01-12T09:34:14.684Z,2.83
2023-01-12T09:36:42.773Z,8.85
2023-01-12T09:39:26.220Z,6.85
2023-01-12T09:42:12.247Z,7.82
2023-01-12T09:45:01.347Z,6.40
2023-01-12T09:47:35.457Z,6.18
2023-01-12T09:50:09.484Z,10.43
2023-01-12T09:52:42.239Z,7.47
2023-01-12T09:55:15.942Z,2.72
2023-01-12T09:58:08.009Z,9.07
2023-01-12T10:00:37.366Z,7.28
2023-01-12T10:03:15.351Z,7.95
2023-01-12T10:05:47.958Z,6.28
2023-01-12T10:08:19.914Z,9.60
2023-01-12T10:11:03.693Z,8.38
2023-01-12T10:13:52.193Z,7.07
2023-01-12T10:16:28.649Z,5.65
2023-01-12T10:19:00.470Z,9.30
2023-01-12T10:21:30.546Z,6.35
2023-01-12T10:23:58.502Z,5.88
2023-01-12T10:26:32.487Z,5.20
2023-01-12T10:29:02.638Z,8.45
2023-01-12T10:31:32.060Z,6.38
2023-01-12T10:34:04.988Z,5.38
2023-01-12T10:36:33.871Z,11.88
2023-01-12T10:39:03.821Z,9.98
2023-01-12T10:41:32.822Z,5.93
2023-01-12T10:44:14.525Z,8.82
2023-01-12T10:46:43.977Z,8.55
2023-01-12T10:49:20.332Z,7.45
2023-01-12T10:51:55.125Z,5.30
2023-01-12T10:54:26.587Z,7.28
2023-01-12T10:56:58.340Z,5.35
2023-01-12T10:59:31.493Z,9.32
2023-01-12T11:02:15.626Z,6.80
2023-01-12T11:04:45.411Z,5.20
2023-01-12T11:07:15.188Z,8.00
2023-01-12T11:09:44.724Z,8.05
2023-01-12T11:12:25.288Z,6.10
2023-01-12T11:15:04.611Z,10.27
2023-01-12T11:17:49.653Z,8.18
2023-01-12T11:20:26.146Z,9.93
2023-01-12T11:22:57.463Z,7.05
2023-01-12T11:25:27.205Z,6.43
2023-01-12T11:27:59.609Z,8.52
2023-01-12T11:30:35.889Z,10.18
2023-01-12T11:33:11.299Z,4.03
2023-01-12T11:35:45.082Z,9.93
2023-01-12T11:38:15.076Z,8.15
2023-01-12T11:40:45.169Z,5.78
2023-01-12T11:43:42.546Z,5.50
2023-01-12T11:46:18.421Z,4.15
2023-01-12T11:48:53.284Z,7.13
2023-01-12T11:51:21.266Z,7.15
2023-01-12T11:53:49.266Z,6.18
2023-01-12T11:56:41.270Z,3.97
2023-01-12T11:59:18.928Z,4.80
2023-01-12T12:01:57.597Z,6.90
2023-01-12T12:04:40.988Z,3.78
2023-01-12T12:07:21.984Z,8.88
2023-01-12T12:10:18.961Z,7.57
2023-01-12T12:13:09.527Z,7.95
2023-01-12T12:15:44.198Z,11.00
2023-01-12T12:18:23.726Z,20.00
2023-01-12T12:21:07.973Z,25.55
2023-01-12T12:23:45.110Z,6.72
2023-01-12T12:26:22.817Z,6.38
2023-01-12T12:29:18.417Z,18.77
2023-01-12T12:31:58.570Z,17.92
2023-01-12T12:34:55.297Z,6.50
2023-01-12T12:37:39.139Z,7.35
2023-01-12T12:40:18.906Z,4.68
2023-01-12T12:43:19.351Z,10.73
2023-01-12T12:45:53.683Z,3.92
2023-01-12T12:48:25.071Z,3.25
2023-01-12T12:51:01.673Z,4.43
2023-01-12T12:53:35.495Z,2.42
2023-01-12T12:56:07.337Z,6.68
2023-01-12T12:58:44.157Z,4.68
2023-01-12T13:02:05.894Z,1.42
2023-01-12T13:05:04.806Z,5.03
2023-01-12T13:07:37.815Z,0.95
2023-01-12T13:10:24.793Z,2.57
2023-01-12T13:13:30.920Z,1.48
2023-01-12T13:16:41.798Z,1.33
2023-01-12T13:19:15.815Z,3.00
2023-01-12T13:21:59.431Z,1.38
2023-01-12T13:27:00.463Z,2.15
2023-01-12T13:29:44.275Z,3.97
2023-01-12T13:32:34.473Z,2.13
2023-01-12T13:35:02.720Z,2.05
2023-01-12T13:37:40.426Z,1.85
2023-01-12T13:40:14.534Z,1.20
2023-01-12T13:43:03.273Z,3.40
2023-01-12T13:45:32.164Z,0.70
2023-01-12T13:48:00.604Z,0.68
2023-01-12T13:50:29.521Z,2.30
2023-01-12T13:52:59.081Z,3.15
2023-01-12T13:55:28.967Z,4.53
2023-01-12T13:58:01.155Z,3.55
2023-01-12T14:00:32.265Z,0.60
2023-01-12T14:03:02.993Z,2.05
2023-01-12T14:05:40.115Z,1.88
2023-01-12T14:08:39.637Z,1.85
2023-01-12T14:11:30.195Z,3.00
2023-01-12T14:14:32.999Z,2.78
2023-01-12T14:17:18.561Z,1.60
2023-01-12T14:19:51.315Z,0.82
2023-01-12T14:22:20.895Z,0.80
2023-01-12T14:24:48.800Z,2.05
2023-01-12T14:27:18.098Z,1.55
2023-01-12T14:29:47.375Z,1.02
2023-01-12T14:32:15.888Z,0.80
2023-01-12T14:34:52.292Z,1.92
2023-01-12T14:37:28.047Z,2.25
2023-01-12T14:39:56.985Z,1.17
2023-01-12T14:42:42.896Z,1.02
2023-01-12T14:45:44.072Z,0.60
2023-01-12T14:48:27.235Z,1.23
2023-01-12T14:51:03.730Z,0.98
2023-01-12T14:53:39.348Z,2.17
2023-01-12T14:56:09.880Z,3.00
2023-01-12T14:58:38.030Z,2.08
2023-01-12T15:01:08.060Z,2.15
2023-01-12T15:03:43.707Z,1.33
2023-01-12T15:06:16.017Z,1.08
2023-01-12T15:08:56.030Z,2.05
2023-01-12T15:11:32.918Z,1.85
2023-01-12T15:14:02.221Z,3.70
2023-01-12T15:16:49.093Z,2.50
2023-01-12T15:19:34.234Z,0.63
2023-01-12T15:22:19.904Z,2.88
2023-01-12T15:25:05.001Z,3.60
2023-01-12T15:27:32.949Z,0.65
2023-01-12T15:30:01.215Z,2.22
2023-01-12T15:32:46.722Z,1.55
2023-01-12T15:35:17.073Z,1.27
2023-01-12T15:37:45.197Z,1.23
2023-01-12T15:40:14.941Z,2.53
2023-01-12T15:42:43.276Z,0.80
2023-01-12T15:45:33.248Z,2.17
2023-01-12T15:48:02.829Z,7.82
2023-01-12T15:50:31.070Z,22.45
2023-01-12T15:53:00.925Z,3.08
2023-01-12T15:55:31.215Z,3.47
2023-01-12T15:57:59.154Z,1.60
2023-01-12T16:00:27.148Z,1.75
2023-01-12T16:02:55.043Z,2.60
2023-01-12T16:05:26.336Z,2.58
2023-01-12T16:07:54.595Z,1.35
2023-01-12T16:10:23.757Z,1.10
2023-01-12T16:12:51.630Z,2.42
2023-01-12T16:15:23.153Z,0.98
2023-01-12T16:17:52.450Z,1.38
2023-01-12T16:20:21.573Z,1.05
2023-01-12T16:22:50.990Z,1.95
2023-01-12T16:25:19.520Z,2.13
2023-01-12T16:27:47.425Z,3.38
2023-01-12T16:30:16.869Z,1.17
2023-01-12T16:32:47.282Z,1.88
2023-01-12T16:35:15.987Z,2.33
2023-01-12T16:37:44.641Z,1.40
2023-01-12T16:40:14.671Z,2.72
2023-01-12T16:42:42.536Z,0.90
2023-01-12T16:45:11.328Z,3.80
2023-01-12T16:47:39.267Z,2.03
2023-01-12T16:50:07.958Z,2.45
2023-01-12T16:52:35.945Z,1.15
2023-01-12T16:55:05.017Z,2.58
2023-01-12T16:57:34.915Z,1.02
2023-01-12T17:00:03.616Z,2.28
2023-01-12T17:02:32.169Z,2.28
2023-01-12T17:05:00.287Z,0.50
2023-01-12T17:07:28.501Z,5.45
2023-01-12T17:09:56.453Z,1.35
2023-01-12T17:12:24.599Z,2.70
2023-01-12T17:14:54.895Z,1.85
2023-01-12T17:17:23.067Z,2.50
2023-01-12T17:19:51.293Z,2.00
2023-01-12T17:22:19.479Z,1.10
2023-01-12T17:24:47.822Z,0.45
2023-01-12T17:27:15.952Z,1.15
2023-01-12T17:29:43.967Z,3.05
2023-01-12T17:32:13.579Z,5.55
2023-01-12T17:34:43.150Z,2.40
2023-01-12T17:37:11.603Z,2.33
2023-01-12T17:39:41.333Z,1.30
2023-01-12T17:42:28.542Z,0.63
2023-01-12T17:44:56.579Z,2.50
2023-01-12T17:47:26.262Z,1.50
2023-01-12T17:49:55.402Z,2.85
2023-01-12T17:52:23.854Z,3.60
2023-01-12T17:54:51.819Z,2.72
2023-01-12T17:57:19.715Z,0.98
2023-01-12T17:59:49.846Z,0.77
2023-01-12T18:02:18.258Z,1.08
2023-01-12T18:04:47.722Z,0.77
2023-01-12T18:07:15.638Z,1.10
2023-01-12T18:09:43.583Z,2.03
2023-01-12T18:12:12.360Z,2.00
2023-01-12T18:14:40.355Z,2.47
2023-01-12T18:17:09.882Z,2.28
2023-01-12T18:19:37.850Z,3.80
2023-01-12T18:22:07.558Z,1.30
2023-01-12T18:24:35.936Z,2.63
2023-01-12T18:27:04.216Z,1.15
2023-01-12T18:29:32.527Z,0.70
2023-01-12T18:32:00.447Z,0.90
2023-01-12T18:34:29.157Z,1.15
2023-01-12T18:36:57.019Z,2.83
2023-01-12T18:39:26.316Z,0.88
2023-01-12T18:42:11.515Z,1.10
2023-01-12T18:44:39.829Z,1.52
2023-01-12T18:47:25.421Z,2.03
2023-01-12T18:49:57.497Z,2.22
2023-01-12T18:52:43.242Z,2.00
2023-01-12T18:55:12.555Z,0.77
2023-01-12T18:57:40.484Z,1.77
2023-01-12T19:00:15.713Z,1.40
2023-01-12T19:02:44.222Z,1.08
2023-01-12T19:05:20.754Z,1.30
2023-01-12T19:08:04.539Z,1.15
2023-01-12T19:10:34.092Z,2.00
2023-01-12T19:13:19.774Z,1.02
2023-01-12T19:16:05.041Z,2.05
2023-01-12T19:18:35.771Z,0.90
2023-01-12T19:21:34.633Z,0.85
2023-01-12T19:24:20.044Z,0.60
2023-01-12T19:27:06.699Z,1.40
2023-01-12T19:29:35.461Z,2.17
2023-01-12T19:32:03.567Z,0.88
2023-01-12T19:34:31.934Z,1.40
2023-01-12T19:36:59.808Z,1.85
2023-01-12T19:39:46.312Z,0.93
2023-01-12T19:42:33.676Z,0.82
2023-01-12T19:45:01.571Z,1.20
2023-01-12T19:47:29.503Z,1.17
2023-01-12T19:49:58.036Z,1.08
2023-01-12T19:52:26.020Z,1.48
2023-01-12T19:54:53.972Z,0.50
2023-01-12T19:57:23.243Z,1.23
2023-01-12T19:59:51.115Z,1.75
2023-01-12T20:02:19.055Z,1.40
2023-01-12T20:04:46.983Z,0.75
2023-01-12T20:07:14.890Z,2.20
2023-01-12T20:09:42.756Z,1.15
2023-01-12T20:12:10.676Z,1.42
2023-01-12T20:14:39.971Z,0.70
2023-01-12T20:17:08.345Z,1.23
2023-01-12T20:19:36.824Z,0.85
2023-01-12T20:22:04.865Z,0.70
2023-01-12T20:24:32.851Z,1.95
2023-01-12T20:27:00.869Z,0.77
2023-01-12T20:29:28.832Z,1.30
2023-01-12T20:31:58.141Z,0.70
2023-01-12T20:34:26.048Z,3.03
2023-01-12T20:36:53.957Z,1.08
2023-01-12T20:39:24.040Z,3.92
2023-01-12T20:41:51.948Z,2.17
2023-01-12T20:44:20.709Z,1.13
2023-01-12T20:46:48.646Z,0.80
2023-01-12T20:49:18.069Z,0.75
2023-01-12T20:51:46.752Z,2.40
2023-01-12T20:54:14.858Z,0.88
2023-01-12T20:56:43.153Z,1.50
2023-01-12T20:59:11.165Z,4.50
2023-01-12T21:01:39.190Z,0.93
2023-01-12T21:04:07.291Z,2.97
2023-01-12T21:06:36.726Z,1.17
2023-01-12T21:09:05.381Z,2.30
2023-01-12T21:11:33.342Z,0.95
2023-01-12T21:14:01.217Z,1.83
2023-01-12T21:16:30.074Z,1.67
2023-01-12T21:18:58.287Z,1.65
2023-01-12T21:21:26.266Z,1.30
2023-01-12T21:23:55.566Z,1.75
2023-01-12T21:26:23.514Z,0.98
2023-01-12T21:28:51.488Z,0.80
2023-01-12T21:31:19.440Z,1.58
2023-01-12T21:33:47.495Z,1.00
2023-01-12T21:36:17.795Z,1.20
2023-01-12T21:38:49.927Z,2.67
2023-01-12T21:41:21.533Z,1.77
2023-01-12T21:43:50.580Z,1.48
2023-01-12T21:46:20.344Z,1.15
2023-01-12T21:48:48.333Z,1.27
2023-01-12T21:51:18.034Z,1.88
2023-01-12T21:53:45.958Z,3.67
2023-01-12T21:56:14.281Z,3.35
2023-01-12T21:58:43.557Z,2.50
2023-01-12T22:01:13.238Z,3.22
2023-01-12T22:03:41.910Z,4.63
2023-01-12T22:06:11.396Z,2.45
2023-01-12T22:08:41.327Z,1.42
2023-01-12T22:11:11.441Z,4.75
2023-01-12T22:13:40.053Z,1.60
2023-01-12T22:16:12.097Z,1.95
2023-01-12T22:18:40.996Z,1.83
2023-01-12T22:21:11.052Z,1.80
2023-01-12T22:23:39.509Z,2.45
2023-01-12T22:26:09.822Z,1.25
2023-01-12T22:28:39.525Z,1.48
2023-01-12T22:31:10.522Z,3.13
2023-01-12T22:33:39.105Z,1.73
2023-01-12T22:36:08.540Z,1.92
2023-01-12T22:38:36.473Z,1.42
2023-01-12T22:41:05.671Z,0.73
2023-01-12T22:43:38.835Z,1.08
2023-01-12T22:46:06.840Z,2.17
2023-01-12T22:48:36.624Z,1.75
2023-01-12T22:51:05.244Z,1.67
2023-01-12T22:53:33.270Z,2.72
2023-01-12T22:56:01.597Z,0.93
2023-01-12T22:58:29.869Z,1.33
2023-01-12T23:01:03.097Z,2.08
2023-01-12T23:03:31.360Z,2.83
2023-01-12T23:06:00.745Z,1.13
2023-01-12T23:08:28.986Z,2.08
2023-01-12T23:11:04.747Z,0.77
2023-01-12T23:13:32.743Z,1.67
2023-01-12T23:16:04.469Z,0.95
2023-01-12T23:18:34.282Z,4.03
2023-01-12T23:21:09.857Z,8.57
2023-01-12T23:23:38.392Z,1.48
2023-01-12T23:26:08.817Z,0.75
2023-01-12T23:28:41.111Z,0.63
2023-01-12T23:31:11.313Z,1.42
2023-01-12T23:33:41.150Z,1.98
2023-01-12T23:36:13.952Z,0.98
2023-01-12T23:38:42.662Z,1.75
2023-01-12T23:41:12.029Z,2.63
2023-01-12T23:43:40.041Z,1.20
2023-01-12T23:46:08.266Z,1.33
2023-01-12T23:48:36.204Z,0.75
2023-01-12T23:51:04.386Z,1.27
2023-01-12T23:53:33.818Z,1.48
2023-01-12T23:56:05.632Z,0.63
2023-01-12T23:58:33.641Z,1.27
